This is the latest recevied weather packets stored in our database for station/object EA3BNF-1. If no packets are shown the sender has not sent any weather packets the latest 10 day(s).
| Time | Temp. | Humidity | Pressure | Rain* | Wind** | Luminosity | Snow |
|---|---|---|---|---|---|---|---|
| 1778097956 | 18.33° C | 63% | 1012.4 hPa | - | - | - | - |
| 1778097300 | 18.33° C | 63% | 1012.3 hPa | - | - | - | - |
| 1778096642 | 18.33° C | 62% | 1012.1 hPa | - | - | - | - |
| 1778095983 | 18.89° C | 62% | 1011.9 hPa | - | - | - | - |
| 1778095325 | 18.89° C | 61% | 1011.8 hPa | - | - | - | - |
| 1778094665 | 20° C | 60% | 1011.6 hPa | - | - | - | - |
| 1778094009 | 22.22° C | 55% | 1011.5 hPa | - | - | - | - |
| 1778092253 | 19.44° C | 59% | 1011.2 hPa | - | - | - | - |
| 1778091595 | 20° C | 59% | 1011.2 hPa | - | - | - | - |
| 1778090940 | 20° C | 59% | 1011 hPa | - | - | - | - |
| 1778090284 | 20.56° C | 58% | 1010.9 hPa | - | - | - | - |
| 1778089628 | 21.11° C | 56% | 1010.9 hPa | - | - | - | - |
| 1778088973 | 21.67° C | 58% | 1010.8 hPa | - | - | - | - |
| 1778087932 | 21.67° C | 56% | 1010.8 hPa | - | - | - | - |
| 1778087276 | 21.67° C | 54% | 1010.7 hPa | - | - | - | - |
| 1778086621 | 21.67° C | 55% | 1010.7 hPa | - | - | - | - |
| 1778085965 | 21.67° C | 55% | 1010.5 hPa | - | - | - | - |
| 1778085309 | 21.67° C | 54% | 1010.4 hPa | - | - | - | - |
| 1778084654 | 21.67° C | 54% | 1010.4 hPa | - | - | - | - |
| 1778083998 | 21.67° C | 54% | 1010.4 hPa | - | - | - | - |
| 1778083342 | 21.67° C | 54% | 1010.4 hPa | - | - | - | - |
| 1778082687 | 21.67° C | 54% | 1010.4 hPa | - | - | - | - |
| 1778082031 | 22.22° C | 54% | 1010.5 hPa | - | - | - | - |
| 1778081375 | 22.22° C | 53% | 1010.6 hPa | - | - | - | - |
| 1778080720 | 21.67° C | 54% | 1010.6 hPa | - | - | - | - |
* Rain since midnight (hover to see other rain measurements)
** Current wind speed in m/s (hover to see current wind gust speed)